To NAV CANADA Home Page Login to a new session Search on AWWS site Feedback and Comments Disclaimer Vers la page française équivalente Tips FAQ What's new on the site To the Forecasts and Observations / NOTAM section To "File a Flight Plan" website Publications and other links Update of the User's profile FIC Telephone Numbers My Weather Data Folder Route Weather Data Regional Weather Data Local Weather Data To the Forecasts and Observations / NOTAM section
Request Generated 05/04/2016 at 19:19:11 UTC . Weather information available at that time is displayed.

METAR/TAF

FARO/YT    

SPECI CZFA 041913Z VRB10G20KT 30SM FEW050CB SCT060 BKN100 BKN180
08/M08 A2981 RMK CB1CU3AC1AC1 WSHFT 1905 UPR AC TR SLP122=
METAR CZFA 041900Z 27006KT 210V310 30SM VCSH FEW050CB SCT060 BKN120
BKN180 08/M08 A2981 RMK CB1CU3AC1AC1 UPR AC TR VIRGA SLP122=
METAR CZFA 041800Z CCA VRB03KT 30SM VCSH FEW050CB SCT060 BKN090
BKN120 06/M07 A2982 RMK CB2CU2AC1AC1 VIRGA SLP127=
METAR CZFA 041800Z VRB03KT 30SM FEW050CB SCT060 BKN090 BKN120 06/M07
A2982 RMK CB2CU2AC1AC1 SLP127=
METAR CZFA 041700Z 31004KT 250V340 30SM VCSH BKN055CB BKN070 BKN120
05/M07 A2984 RMK CB5AC1AC1 VIS NE 5 VIRGA SLP134=

TAF CZFA 041738Z 0418/0422 31005KT P6SM SCT070 TEMPO 0418/0422 P6SM
-SHRA BKN070
BECMG 0419/0421 17010G20KT
RMK NXT FCST WILL BE ISSUED AT 051545Z=
Your time UTC time
Weather data provided by Environment Canada and NAV CANADA